sensor_id;sensor_type;location;lat;lon;timestamp;P1;durP1;ratioP1;P2;durP2;ratioP2
57217;SDS011;43078;52.972;6.482;2022-12-08T00:02:18;3.72;;;0.77;;
57217;SDS011;43078;52.972;6.482;2022-12-08T00:04:43;3.83;;;0.65;;
57217;SDS011;43078;52.972;6.482;2022-12-08T00:07:27;3.05;;;0.60;;
57217;SDS011;43078;52.972;6.482;2022-12-08T00:10:11;2.97;;;0.82;;
57217;SDS011;43078;52.972;6.482;2022-12-08T00:12:37;2.70;;;0.63;;
57217;SDS011;43078;52.972;6.482;2022-12-08T00:15:02;4.47;;;0.75;;
57217;SDS011;43078;52.972;6.482;2022-12-08T00:17:28;5.55;;;0.90;;
57217;SDS011;43078;52.972;6.482;2022-12-08T00:19:54;3.60;;;0.77;;
57217;SDS011;43078;52.972;6.482;2022-12-08T00:22:19;9.25;;;1.10;;
57217;SDS011;43078;52.972;6.482;2022-12-08T00:24:45;6.60;;;1.00;;
57217;SDS011;43078;52.972;6.482;2022-12-08T00:27:11;8.23;;;1.02;;
57217;SDS011;43078;52.972;6.482;2022-12-08T00:29:39;6.35;;;1.00;;
57217;SDS011;43078;52.972;6.482;2022-12-08T00:32:06;4.47;;;0.90;;
57217;SDS011;43078;52.972;6.482;2022-12-08T00:34:32;3.75;;;0.80;;
57217;SDS011;43078;52.972;6.482;2022-12-08T00:36:58;4.35;;;1.02;;
57217;SDS011;43078;52.972;6.482;2022-12-08T00:39:23;5.60;;;1.10;;
57217;SDS011;43078;52.972;6.482;2022-12-08T00:41:49;6.13;;;1.10;;
57217;SDS011;43078;52.972;6.482;2022-12-08T00:44:33;4.85;;;1.15;;
57217;SDS011;43078;52.972;6.482;2022-12-08T00:46:59;6.00;;;1.05;;
57217;SDS011;43078;52.972;6.482;2022-12-08T00:49:24;4.28;;;1.20;;
57217;SDS011;43078;52.972;6.482;2022-12-08T00:51:50;4.60;;;0.95;;
57217;SDS011;43078;52.972;6.482;2022-12-08T00:54:16;4.40;;;0.80;;
57217;SDS011;43078;52.972;6.482;2022-12-08T00:56:42;4.88;;;0.80;;
57217;SDS011;43078;52.972;6.482;2022-12-08T00:59:07;1.85;;;0.60;;
57217;SDS011;43078;52.972;6.482;2022-12-08T01:01:33;4.43;;;0.93;;
57217;SDS011;43078;52.972;6.482;2022-12-08T01:04:03;4.28;;;0.98;;
57217;SDS011;43078;52.972;6.482;2022-12-08T01:06:30;4.70;;;0.80;;
57217;SDS011;43078;52.972;6.482;2022-12-08T01:08:56;6.22;;;0.98;;
57217;SDS011;43078;52.972;6.482;2022-12-08T01:11:22;3.38;;;0.80;;
57217;SDS011;43078;52.972;6.482;2022-12-08T01:13:47;4.15;;;0.82;;
57217;SDS011;43078;52.972;6.482;2022-12-08T01:16:26;6.72;;;0.95;;
57217;SDS011;43078;52.972;6.482;2022-12-08T01:18:53;3.33;;;0.80;;
57217;SDS011;43078;52.972;6.482;2022-12-08T01:21:20;4.70;;;0.80;;
57217;SDS011;43078;52.972;6.482;2022-12-08T01:23:46;4.40;;;0.80;;
57217;SDS011;43078;52.972;6.482;2022-12-08T01:26:12;3.85;;;0.90;;
57217;SDS011;43078;52.972;6.482;2022-12-08T01:28:39;3.53;;;1.02;;
57217;SDS011;43078;52.972;6.482;2022-12-08T01:31:09;3.80;;;0.82;;
57217;SDS011;43078;52.972;6.482;2022-12-08T01:33:42;4.20;;;0.80;;
57217;SDS011;43078;52.972;6.482;2022-12-08T01:36:09;3.72;;;0.88;;
57217;SDS011;43078;52.972;6.482;2022-12-08T01:38:44;4.97;;;0.90;;
57217;SDS011;43078;52.972;6.482;2022-12-08T01:41:12;2.03;;;0.52;;
57217;SDS011;43078;52.972;6.482;2022-12-08T01:43:56;3.65;;;0.88;;
57217;SDS011;43078;52.972;6.482;2022-12-08T01:46:29;3.78;;;0.80;;
57217;SDS011;43078;52.972;6.482;2022-12-08T01:49:16;4.60;;;0.70;;
57217;SDS011;43078;52.972;6.482;2022-12-08T01:51:57;4.38;;;0.73;;
57217;SDS011;43078;52.972;6.482;2022-12-08T01:54:45;4.65;;;0.70;;
57217;SDS011;43078;52.972;6.482;2022-12-08T01:57:16;3.22;;;0.70;;
57217;SDS011;43078;52.972;6.482;2022-12-08T01:59:49;3.58;;;0.60;;
57217;SDS011;43078;52.972;6.482;2022-12-08T02:02:20;4.20;;;0.70;;
57217;SDS011;43078;52.972;6.482;2022-12-08T02:04:46;3.45;;;0.75;;
57217;SDS011;43078;52.972;6.482;2022-12-08T02:07:12;2.90;;;0.60;;
57217;SDS011;43078;52.972;6.482;2022-12-08T02:09:40;3.58;;;0.85;;
57217;SDS011;43078;52.972;6.482;2022-12-08T02:12:06;1.98;;;0.60;;
57217;SDS011;43078;52.972;6.482;2022-12-08T02:14:33;1.88;;;0.60;;
57217;SDS011;43078;52.972;6.482;2022-12-08T02:17:02;4.63;;;0.90;;
57217;SDS011;43078;52.972;6.482;2022-12-08T02:20:12;3.33;;;0.38;;
57217;SDS011;43078;52.972;6.482;2022-12-08T02:22:59;4.95;;;0.70;;
57217;SDS011;43078;52.972;6.482;2022-12-08T02:28:30;3.50;;;0.85;;
57217;SDS011;43078;52.972;6.482;2022-12-08T02:34:04;3.33;;;0.70;;
57217;SDS011;43078;52.972;6.482;2022-12-08T02:36:56;1.35;;;0.43;;
57217;SDS011;43078;52.972;6.482;2022-12-08T02:44:42;2.75;;;0.55;;
57217;SDS011;43078;52.972;6.482;2022-12-08T02:47:13;1.42;;;0.45;;
57217;SDS011;43078;52.972;6.482;2022-12-08T02:49:41;4.95;;;0.80;;
57217;SDS011;43078;52.972;6.482;2022-12-08T02:54:36;3.50;;;0.98;;
57217;SDS011;43078;52.972;6.482;2022-12-08T02:57:14;5.15;;;0.68;;
57217;SDS011;43078;52.972;6.482;2022-12-08T02:59:53;2.47;;;0.70;;
57217;SDS011;43078;52.972;6.482;2022-12-08T03:13:53;2.78;;;0.63;;
57217;SDS011;43078;52.972;6.482;2022-12-08T03:16:24;3.47;;;0.60;;
57217;SDS011;43078;52.972;6.482;2022-12-08T03:18:59;5.85;;;0.70;;
57217;SDS011;43078;52.972;6.482;2022-12-08T03:21:31;3.60;;;0.55;;
57217;SDS011;43078;52.972;6.482;2022-12-08T03:23:59;2.95;;;0.50;;
57217;SDS011;43078;52.972;6.482;2022-12-08T03:26:34;3.22;;;0.60;;
57217;SDS011;43078;52.972;6.482;2022-12-08T03:29:02;3.70;;;0.40;;
57217;SDS011;43078;52.972;6.482;2022-12-08T03:31:30;1.25;;;0.40;;
57217;SDS011;43078;52.972;6.482;2022-12-08T03:33:58;2.28;;;0.40;;
57217;SDS011;43078;52.972;6.482;2022-12-08T03:36:25;1.77;;;0.47;;
57217;SDS011;43078;52.972;6.482;2022-12-08T03:38:52;2.42;;;0.40;;
57217;SDS011;43078;52.972;6.482;2022-12-08T03:41:19;2.03;;;0.40;;
57217;SDS011;43078;52.972;6.482;2022-12-08T03:46:19;3.17;;;0.50;;
57217;SDS011;43078;52.972;6.482;2022-12-08T03:48:46;2.40;;;0.50;;
57217;SDS011;43078;52.972;6.482;2022-12-08T03:51:12;3.42;;;0.60;;
57217;SDS011;43078;52.972;6.482;2022-12-08T03:53:38;2.47;;;0.60;;
57217;SDS011;43078;52.972;6.482;2022-12-08T03:56:04;1.27;;;0.40;;
57217;SDS011;43078;52.972;6.482;2022-12-08T03:58:41;4.93;;;0.63;;
57217;SDS011;43078;52.972;6.482;2022-12-08T04:01:07;2.47;;;0.60;;
57217;SDS011;43078;52.972;6.482;2022-12-08T04:03:32;0.93;;;0.43;;
57217;SDS011;43078;52.972;6.482;2022-12-08T04:05:58;0.98;;;0.30;;
57217;SDS011;43078;52.972;6.482;2022-12-08T04:08:23;2.30;;;0.50;;
57217;SDS011;43078;52.972;6.482;2022-12-08T04:10:49;2.13;;;0.55;;
57217;SDS011;43078;52.972;6.482;2022-12-08T04:13:15;1.40;;;0.40;;
57217;SDS011;43078;52.972;6.482;2022-12-08T04:15:44;2.50;;;0.60;;
57217;SDS011;43078;52.972;6.482;2022-12-08T04:18:11;3.83;;;0.52;;
57217;SDS011;43078;52.972;6.482;2022-12-08T04:20:40;1.70;;;0.43;;
57217;SDS011;43078;52.972;6.482;2022-12-08T04:23:08;2.38;;;0.43;;
57217;SDS011;43078;52.972;6.482;2022-12-08T04:25:34;2.33;;;0.40;;
57217;SDS011;43078;52.972;6.482;2022-12-08T04:28:01;1.23;;;0.40;;
57217;SDS011;43078;52.972;6.482;2022-12-08T04:30:27;2.90;;;0.40;;
57217;SDS011;43078;52.972;6.482;2022-12-08T04:32:53;1.17;;;0.30;;
57217;SDS011;43078;52.972;6.482;2022-12-08T04:35:19;1.55;;;0.30;;
57217;SDS011;43078;52.972;6.482;2022-12-08T04:37:44;1.80;;;0.35;;
57217;SDS011;43078;52.972;6.482;2022-12-08T04:40:10;2.03;;;0.40;;
57217;SDS011;43078;52.972;6.482;2022-12-08T04:42:37;1.73;;;0.50;;
57217;SDS011;43078;52.972;6.482;2022-12-08T04:45:02;0.50;;;0.35;;
57217;SDS011;43078;52.972;6.482;2022-12-08T04:47:28;2.53;;;0.52;;
57217;SDS011;43078;52.972;6.482;2022-12-08T04:49:54;1.60;;;0.30;;
57217;SDS011;43078;52.972;6.482;2022-12-08T04:52:20;2.53;;;0.40;;
57217;SDS011;43078;52.972;6.482;2022-12-08T04:54:45;0.70;;;0.30;;
57217;SDS011;43078;52.972;6.482;2022-12-08T04:57:11;0.38;;;0.20;;
57217;SDS011;43078;52.972;6.482;2022-12-08T04:59:36;1.55;;;0.30;;
57217;SDS011;43078;52.972;6.482;2022-12-08T05:02:02;0.75;;;0.38;;
57217;SDS011;43078;52.972;6.482;2022-12-08T05:04:28;0.80;;;0.50;;
57217;SDS011;43078;52.972;6.482;2022-12-08T05:06:54;1.42;;;0.40;;
57217;SDS011;43078;52.972;6.482;2022-12-08T05:09:19;1.75;;;0.55;;
57217;SDS011;43078;52.972;6.482;2022-12-08T05:11:45;0.55;;;0.30;;
57217;SDS011;43078;52.972;6.482;2022-12-08T05:14:11;1.23;;;0.40;;
57217;SDS011;43078;52.972;6.482;2022-12-08T05:16:39;1.05;;;0.30;;
57217;SDS011;43078;52.972;6.482;2022-12-08T05:19:06;1.40;;;0.40;;
57217;SDS011;43078;52.972;6.482;2022-12-08T05:21:32;2.25;;;0.50;;
57217;SDS011;43078;52.972;6.482;2022-12-08T05:23:58;3.08;;;0.50;;
57217;SDS011;43078;52.972;6.482;2022-12-08T05:26:24;0.82;;;0.40;;
57217;SDS011;43078;52.972;6.482;2022-12-08T05:28:49;1.95;;;0.52;;
57217;SDS011;43078;52.972;6.482;2022-12-08T05:31:15;2.42;;;0.35;;
57217;SDS011;43078;52.972;6.482;2022-12-08T05:33:41;2.30;;;0.40;;
57217;SDS011;43078;52.972;6.482;2022-12-08T05:36:09;2.30;;;0.35;;
57217;SDS011;43078;52.972;6.482;2022-12-08T05:38:39;1.83;;;0.30;;
57217;SDS011;43078;52.972;6.482;2022-12-08T05:41:05;0.65;;;0.30;;
57217;SDS011;43078;52.972;6.482;2022-12-08T05:43:32;1.17;;;0.40;;
57217;SDS011;43078;52.972;6.482;2022-12-08T05:45:57;1.13;;;0.40;;
57217;SDS011;43078;52.972;6.482;2022-12-08T05:48:23;2.80;;;0.50;;
57217;SDS011;43078;52.972;6.482;2022-12-08T05:50:49;0.30;;;0.20;;
57217;SDS011;43078;52.972;6.482;2022-12-08T05:53:16;2.63;;;0.60;;
57217;SDS011;43078;52.972;6.482;2022-12-08T05:55:42;1.08;;;0.40;;
57217;SDS011;43078;52.972;6.482;2022-12-08T05:58:10;2.80;;;0.50;;
57217;SDS011;43078;52.972;6.482;2022-12-08T06:00:38;3.22;;;0.40;;
57217;SDS011;43078;52.972;6.482;2022-12-08T06:03:04;1.40;;;0.40;;
57217;SDS011;43078;52.972;6.482;2022-12-08T06:05:31;2.38;;;0.55;;
57217;SDS011;43078;52.972;6.482;2022-12-08T06:07:57;2.95;;;0.63;;
57217;SDS011;43078;52.972;6.482;2022-12-08T06:10:23;2.78;;;0.52;;
57217;SDS011;43078;52.972;6.482;2022-12-08T06:12:48;2.28;;;0.40;;
57217;SDS011;43078;52.972;6.482;2022-12-08T06:15:14;0.85;;;0.38;;
57217;SDS011;43078;52.972;6.482;2022-12-08T06:17:40;1.02;;;0.32;;
57217;SDS011;43078;52.972;6.482;2022-12-08T06:20:06;2.35;;;0.45;;
57217;SDS011;43078;52.972;6.482;2022-12-08T06:22:32;3.08;;;0.40;;
57217;SDS011;43078;52.972;6.482;2022-12-08T06:24:58;2.28;;;0.40;;
57217;SDS011;43078;52.972;6.482;2022-12-08T06:27:23;4.07;;;0.50;;
57217;SDS011;43078;52.972;6.482;2022-12-08T06:29:49;2.08;;;0.60;;
57217;SDS011;43078;52.972;6.482;2022-12-08T06:32:14;2.78;;;0.55;;
57217;SDS011;43078;52.972;6.482;2022-12-08T06:34:40;3.50;;;0.70;;
57217;SDS011;43078;52.972;6.482;2022-12-08T06:37:05;2.88;;;0.60;;
57217;SDS011;43078;52.972;6.482;2022-12-08T06:39:31;2.00;;;0.50;;
57217;SDS011;43078;52.972;6.482;2022-12-08T06:41:57;3.08;;;0.50;;
57217;SDS011;43078;52.972;6.482;2022-12-08T06:44:41;2.08;;;0.50;;
57217;SDS011;43078;52.972;6.482;2022-12-08T06:47:07;2.75;;;0.55;;
57217;SDS011;43078;52.972;6.482;2022-12-08T06:49:35;3.78;;;0.60;;
57217;SDS011;43078;52.972;6.482;2022-12-08T06:52:00;3.67;;;0.70;;
57217;SDS011;43078;52.972;6.482;2022-12-08T06:54:26;2.53;;;0.73;;
57217;SDS011;43078;52.972;6.482;2022-12-08T06:56:52;2.72;;;0.80;;
57217;SDS011;43078;52.972;6.482;2022-12-08T06:59:17;3.00;;;0.70;;
57217;SDS011;43078;52.972;6.482;2022-12-08T07:01:43;2.88;;;0.75;;
57217;SDS011;43078;52.972;6.482;2022-12-08T07:04:10;1.73;;;0.70;;
57217;SDS011;43078;52.972;6.482;2022-12-08T07:06:36;2.60;;;0.70;;
57217;SDS011;43078;52.972;6.482;2022-12-08T07:09:01;2.13;;;0.63;;
57217;SDS011;43078;52.972;6.482;2022-12-08T07:11:27;4.35;;;0.88;;
57217;SDS011;43078;52.972;6.482;2022-12-08T07:13:56;2.10;;;0.75;;
57217;SDS011;43078;52.972;6.482;2022-12-08T07:16:25;1.98;;;0.60;;
57217;SDS011;43078;52.972;6.482;2022-12-08T07:18:53;2.45;;;0.50;;
57217;SDS011;43078;52.972;6.482;2022-12-08T07:21:19;1.73;;;0.60;;
57217;SDS011;43078;52.972;6.482;2022-12-08T07:23:45;4.93;;;0.80;;
57217;SDS011;43078;52.972;6.482;2022-12-08T07:26:12;3.80;;;0.60;;
57217;SDS011;43078;52.972;6.482;2022-12-08T07:28:39;3.33;;;0.77;;
57217;SDS011;43078;52.972;6.482;2022-12-08T07:31:05;4.72;;;0.70;;
57217;SDS011;43078;52.972;6.482;2022-12-08T07:33:32;2.47;;;0.65;;
57217;SDS011;43078;52.972;6.482;2022-12-08T07:36:00;2.33;;;0.63;;
57217;SDS011;43078;52.972;6.482;2022-12-08T07:38:28;2.00;;;0.60;;
57217;SDS011;43078;52.972;6.482;2022-12-08T07:40:54;2.70;;;0.63;;
57217;SDS011;43078;52.972;6.482;2022-12-08T07:43:20;3.58;;;1.10;;
57217;SDS011;43078;52.972;6.482;2022-12-08T07:45:46;3.72;;;0.60;;
57217;SDS011;43078;52.972;6.482;2022-12-08T07:48:12;3.78;;;0.57;;
57217;SDS011;43078;52.972;6.482;2022-12-08T07:50:38;3.70;;;0.75;;
57217;SDS011;43078;52.972;6.482;2022-12-08T07:53:04;3.08;;;0.63;;
57217;SDS011;43078;52.972;6.482;2022-12-08T07:55:30;3.03;;;0.60;;
57217;SDS011;43078;52.972;6.482;2022-12-08T07:57:55;2.08;;;0.57;;
57217;SDS011;43078;52.972;6.482;2022-12-08T08:00:21;2.95;;;0.73;;
57217;SDS011;43078;52.972;6.482;2022-12-08T08:02:47;1.95;;;0.52;;
57217;SDS011;43078;52.972;6.482;2022-12-08T08:05:13;4.20;;;0.77;;
57217;SDS011;43078;52.972;6.482;2022-12-08T08:07:38;2.40;;;0.70;;
57217;SDS011;43078;52.972;6.482;2022-12-08T08:10:07;2.05;;;0.60;;
57217;SDS011;43078;52.972;6.482;2022-12-08T08:12:33;2.55;;;0.95;;
57217;SDS011;43078;52.972;6.482;2022-12-08T08:15:00;4.50;;;0.70;;
57217;SDS011;43078;52.972;6.482;2022-12-08T08:17:26;3.92;;;0.60;;
57217;SDS011;43078;52.972;6.482;2022-12-08T08:19:52;2.03;;;0.60;;
57217;SDS011;43078;52.972;6.482;2022-12-08T08:22:18;1.90;;;0.60;;
57217;SDS011;43078;52.972;6.482;2022-12-08T08:24:43;5.43;;;0.63;;
57217;SDS011;43078;52.972;6.482;2022-12-08T08:27:09;2.45;;;0.63;;
57217;SDS011;43078;52.972;6.482;2022-12-08T08:29:34;3.95;;;0.60;;
57217;SDS011;43078;52.972;6.482;2022-12-08T08:32:00;2.40;;;0.60;;
57217;SDS011;43078;52.972;6.482;2022-12-08T08:34:26;3.28;;;0.90;;
57217;SDS011;43078;52.972;6.482;2022-12-08T08:36:51;8.52;;;0.90;;
57217;SDS011;43078;52.972;6.482;2022-12-08T08:39:17;3.72;;;0.70;;
57217;SDS011;43078;52.972;6.482;2022-12-08T08:41:46;3.22;;;0.85;;
57217;SDS011;43078;52.972;6.482;2022-12-08T08:44:12;4.13;;;0.90;;
57217;SDS011;43078;52.972;6.482;2022-12-08T08:46:38;3.53;;;0.85;;
57217;SDS011;43078;52.972;6.482;2022-12-08T08:49:04;2.85;;;0.65;;
57217;SDS011;43078;52.972;6.482;2022-12-08T08:51:30;2.85;;;0.88;;
57217;SDS011;43078;52.972;6.482;2022-12-08T08:53:56;2.70;;;0.82;;
57217;SDS011;43078;52.972;6.482;2022-12-08T08:56:22;4.88;;;0.68;;
57217;SDS011;43078;52.972;6.482;2022-12-08T08:58:49;3.38;;;0.85;;
57217;SDS011;43078;52.972;6.482;2022-12-08T09:01:20;1.75;;;0.60;;
57217;SDS011;43078;52.972;6.482;2022-12-08T09:03:47;2.95;;;0.60;;
57217;SDS011;43078;52.972;6.482;2022-12-08T09:06:13;1.50;;;0.60;;
57217;SDS011;43078;52.972;6.482;2022-12-08T09:08:40;4.35;;;0.85;;
57217;SDS011;43078;52.972;6.482;2022-12-08T09:11:06;3.63;;;0.70;;
57217;SDS011;43078;52.972;6.482;2022-12-08T09:13:32;3.75;;;0.75;;
57217;SDS011;43078;52.972;6.482;2022-12-08T09:15:59;2.85;;;0.90;;
57217;SDS011;43078;52.972;6.482;2022-12-08T09:18:26;2.90;;;0.75;;
57217;SDS011;43078;52.972;6.482;2022-12-08T09:20:52;2.67;;;0.90;;
57217;SDS011;43078;52.972;6.482;2022-12-08T09:23:18;2.30;;;0.70;;
57217;SDS011;43078;52.972;6.482;2022-12-08T09:25:44;1.98;;;0.70;;
57217;SDS011;43078;52.972;6.482;2022-12-08T09:28:11;1.45;;;0.80;;
57217;SDS011;43078;52.972;6.482;2022-12-08T09:30:37;3.35;;;0.75;;
57217;SDS011;43078;52.972;6.482;2022-12-08T09:33:03;2.60;;;0.85;;
57217;SDS011;43078;52.972;6.482;2022-12-08T09:35:28;3.13;;;0.82;;
57217;SDS011;43078;52.972;6.482;2022-12-08T09:37:54;1.10;;;0.60;;
57217;SDS011;43078;52.972;6.482;2022-12-08T09:40:20;2.78;;;0.85;;
57217;SDS011;43078;52.972;6.482;2022-12-08T09:42:53;3.72;;;0.63;;
57217;SDS011;43078;52.972;6.482;2022-12-08T09:45:32;2.92;;;0.90;;
57217;SDS011;43078;52.972;6.482;2022-12-08T09:48:15;2.25;;;0.63;;
57217;SDS011;43078;52.972;6.482;2022-12-08T09:50:53;3.17;;;0.82;;
57217;SDS011;43078;52.972;6.482;2022-12-08T09:55:59;2.30;;;0.70;;
57217;SDS011;43078;52.972;6.482;2022-12-08T10:01:12;3.72;;;0.80;;
57217;SDS011;43078;52.972;6.482;2022-12-08T10:03:39;2.88;;;0.90;;
57217;SDS011;43078;52.972;6.482;2022-12-08T10:06:48;1.88;;;0.70;;
57217;SDS011;43078;52.972;6.482;2022-12-08T10:11:50;3.50;;;0.90;;
57217;SDS011;43078;52.972;6.482;2022-12-08T10:17:08;5.07;;;1.20;;
57217;SDS011;43078;52.972;6.482;2022-12-08T10:19:48;3.00;;;1.00;;
57217;SDS011;43078;52.972;6.482;2022-12-08T10:22:21;2.75;;;1.15;;
57217;SDS011;43078;52.972;6.482;2022-12-08T10:25:11;4.30;;;1.02;;
57217;SDS011;43078;52.972;6.482;2022-12-08T10:27:43;4.53;;;1.33;;
57217;SDS011;43078;52.972;6.482;2022-12-08T10:30:14;4.97;;;1.70;;
57217;SDS011;43078;52.972;6.482;2022-12-08T10:32:43;6.28;;;1.60;;
57217;SDS011;43078;52.972;6.482;2022-12-08T10:35:12;2.83;;;1.10;;
57217;SDS011;43078;52.972;6.482;2022-12-08T10:37:39;3.60;;;1.23;;
57217;SDS011;43078;52.972;6.482;2022-12-08T10:40:09;2.88;;;1.00;;
57217;SDS011;43078;52.972;6.482;2022-12-08T10:42:47;3.95;;;1.50;;
57217;SDS011;43078;52.972;6.482;2022-12-08T10:48:03;4.00;;;1.38;;
57217;SDS011;43078;52.972;6.482;2022-12-08T10:50:41;4.57;;;1.55;;
57217;SDS011;43078;52.972;6.482;2022-12-08T10:53:19;6.43;;;1.58;;
57217;SDS011;43078;52.972;6.482;2022-12-08T10:58:29;6.15;;;1.63;;
57217;SDS011;43078;52.972;6.482;2022-12-08T11:03:54;7.13;;;1.48;;
57217;SDS011;43078;52.972;6.482;2022-12-08T11:06:24;4.45;;;0.90;;
57217;SDS011;43078;52.972;6.482;2022-12-08T11:08:57;3.03;;;1.30;;
57217;SDS011;43078;52.972;6.482;2022-12-08T11:11:44;7.60;;;1.52;;
57217;SDS011;43078;52.972;6.482;2022-12-08T11:14:27;7.25;;;1.45;;
57217;SDS011;43078;52.972;6.482;2022-12-08T11:17:11;7.47;;;1.48;;
57217;SDS011;43078;52.972;6.482;2022-12-08T11:19:42;4.35;;;1.55;;
57217;SDS011;43078;52.972;6.482;2022-12-08T11:22:19;4.88;;;1.42;;
57217;SDS011;43078;52.972;6.482;2022-12-08T11:27:51;6.75;;;1.83;;
57217;SDS011;43078;52.972;6.482;2022-12-08T11:35:46;5.75;;;1.70;;
57217;SDS011;43078;52.972;6.482;2022-12-08T11:38:19;6.47;;;2.08;;
57217;SDS011;43078;52.972;6.482;2022-12-08T11:40:49;5.03;;;1.75;;
57217;SDS011;43078;52.972;6.482;2022-12-08T11:43:21;7.85;;;1.80;;
57217;SDS011;43078;52.972;6.482;2022-12-08T11:45:59;5.15;;;1.70;;
57217;SDS011;43078;52.972;6.482;2022-12-08T11:48:47;6.55;;;1.63;;
57217;SDS011;43078;52.972;6.482;2022-12-08T11:54:16;6.90;;;1.83;;
57217;SDS011;43078;52.972;6.482;2022-12-08T12:02:13;8.70;;;1.58;;
57217;SDS011;43078;52.972;6.482;2022-12-08T12:19:09;7.80;;;1.90;;
57217;SDS011;43078;52.972;6.482;2022-12-08T12:21:44;9.10;;;2.10;;
57217;SDS011;43078;52.972;6.482;2022-12-08T12:26:54;7.15;;;1.45;;
57217;SDS011;43078;52.972;6.482;2022-12-08T12:29:24;6.45;;;1.15;;
57217;SDS011;43078;52.972;6.482;2022-12-08T12:31:54;4.20;;;1.00;;
57217;SDS011;43078;52.972;6.482;2022-12-08T12:34:24;3.60;;;0.82;;
57217;SDS011;43078;52.972;6.482;2022-12-08T12:36:54;3.70;;;0.70;;
57217;SDS011;43078;52.972;6.482;2022-12-08T12:42:42;3.47;;;0.90;;
57217;SDS011;43078;52.972;6.482;2022-12-08T12:58:55;4.28;;;0.57;;
57217;SDS011;43078;52.972;6.482;2022-12-08T13:03:46;5.18;;;0.80;;
57217;SDS011;43078;52.972;6.482;2022-12-08T13:06:22;2.40;;;0.77;;
57217;SDS011;43078;52.972;6.482;2022-12-08T13:08:57;2.88;;;0.80;;
57217;SDS011;43078;52.972;6.482;2022-12-08T13:11:24;3.58;;;0.60;;
57217;SDS011;43078;52.972;6.482;2022-12-08T13:13:57;5.00;;;1.08;;
57217;SDS011;43078;52.972;6.482;2022-12-08T13:16:29;4.13;;;0.68;;
57217;SDS011;43078;52.972;6.482;2022-12-08T13:19:02;2.80;;;0.70;;
57217;SDS011;43078;52.972;6.482;2022-12-08T13:21:36;6.97;;;0.73;;
57217;SDS011;43078;52.972;6.482;2022-12-08T13:26:43;2.58;;;0.73;;
57217;SDS011;43078;52.972;6.482;2022-12-08T13:31:56;3.70;;;0.80;;
57217;SDS011;43078;52.972;6.482;2022-12-08T13:42:12;3.13;;;0.88;;
57217;SDS011;43078;52.972;6.482;2022-12-08T13:44:55;3.47;;;0.70;;
57217;SDS011;43078;52.972;6.482;2022-12-08T13:47:34;8.73;;;0.80;;
57217;SDS011;43078;52.972;6.482;2022-12-08T13:50:05;3.72;;;0.70;;
57217;SDS011;43078;52.972;6.482;2022-12-08T13:58:05;5.10;;;0.70;;
57217;SDS011;43078;52.972;6.482;2022-12-08T14:00:39;6.20;;;0.90;;
57217;SDS011;43078;52.972;6.482;2022-12-08T14:03:07;4.68;;;0.77;;
57217;SDS011;43078;52.972;6.482;2022-12-08T14:05:40;5.50;;;0.90;;
57217;SDS011;43078;52.972;6.482;2022-12-08T14:10:57;6.65;;;0.77;;
57217;SDS011;43078;52.972;6.482;2022-12-08T14:13:26;4.30;;;0.88;;
57217;SDS011;43078;52.972;6.482;2022-12-08T14:15:53;3.42;;;0.60;;
57217;SDS011;43078;52.972;6.482;2022-12-08T14:18:25;8.18;;;0.90;;
57217;SDS011;43078;52.972;6.482;2022-12-08T14:21:04;5.85;;;0.90;;
57217;SDS011;43078;52.972;6.482;2022-12-08T14:23:35;4.50;;;0.90;;
57217;SDS011;43078;52.972;6.482;2022-12-08T14:26:04;3.88;;;0.70;;
57217;SDS011;43078;52.972;6.482;2022-12-08T14:28:31;5.60;;;0.80;;
57217;SDS011;43078;52.972;6.482;2022-12-08T14:30:57;3.60;;;0.60;;
57217;SDS011;43078;52.972;6.482;2022-12-08T14:33:24;6.80;;;0.80;;
57217;SDS011;43078;52.972;6.482;2022-12-08T14:35:52;2.83;;;0.57;;
57217;SDS011;43078;52.972;6.482;2022-12-08T14:38:19;4.43;;;0.70;;
57217;SDS011;43078;52.972;6.482;2022-12-08T14:41:00;2.33;;;0.60;;
57217;SDS011;43078;52.972;6.482;2022-12-08T14:43:27;3.58;;;0.60;;
57217;SDS011;43078;52.972;6.482;2022-12-08T14:46:01;1.55;;;0.60;;
57217;SDS011;43078;52.972;6.482;2022-12-08T14:48:43;5.30;;;1.15;;
57217;SDS011;43078;52.972;6.482;2022-12-08T14:53:40;3.50;;;0.80;;
57217;SDS011;43078;52.972;6.482;2022-12-08T14:56:17;3.72;;;0.63;;
57217;SDS011;43078;52.972;6.482;2022-12-08T15:01:43;5.28;;;1.02;;
57217;SDS011;43078;52.972;6.482;2022-12-08T15:06:44;7.35;;;1.30;;
57217;SDS011;43078;52.972;6.482;2022-12-08T15:09:27;3.75;;;1.00;;
57217;SDS011;43078;52.972;6.482;2022-12-08T15:11:59;2.65;;;1.00;;
57217;SDS011;43078;52.972;6.482;2022-12-08T15:14:27;6.85;;;1.30;;
57217;SDS011;43078;52.972;6.482;2022-12-08T15:16:56;7.30;;;1.10;;
57217;SDS011;43078;52.972;6.482;2022-12-08T15:21:52;3.65;;;1.10;;
57217;SDS011;43078;52.972;6.482;2022-12-08T15:24:21;5.40;;;1.10;;
57217;SDS011;43078;52.972;6.482;2022-12-08T15:26:49;7.93;;;1.45;;
57217;SDS011;43078;52.972;6.482;2022-12-08T15:31:49;8.43;;;2.42;;
57217;SDS011;43078;52.972;6.482;2022-12-08T15:34:17;5.40;;;1.52;;
57217;SDS011;43078;52.972;6.482;2022-12-08T15:36:44;4.82;;;1.60;;
57217;SDS011;43078;52.972;6.482;2022-12-08T15:39:23;4.68;;;1.60;;
57217;SDS011;43078;52.972;6.482;2022-12-08T15:41:57;7.40;;;1.42;;
57217;SDS011;43078;52.972;6.482;2022-12-08T15:44:23;7.13;;;1.67;;
57217;SDS011;43078;52.972;6.482;2022-12-08T15:46:49;5.00;;;1.55;;
57217;SDS011;43078;52.972;6.482;2022-12-08T15:49:16;7.88;;;1.48;;
57217;SDS011;43078;52.972;6.482;2022-12-08T15:51:46;4.53;;;1.42;;
57217;SDS011;43078;52.972;6.482;2022-12-08T15:54:13;9.18;;;1.67;;
57217;SDS011;43078;52.972;6.482;2022-12-08T15:56:39;7.65;;;1.40;;
57217;SDS011;43078;52.972;6.482;2022-12-08T15:59:17;5.55;;;1.17;;
57217;SDS011;43078;52.972;6.482;2022-12-08T16:01:45;3.42;;;1.30;;
57217;SDS011;43078;52.972;6.482;2022-12-08T16:04:12;4.53;;;1.40;;
57217;SDS011;43078;52.972;6.482;2022-12-08T16:06:40;7.10;;;1.67;;
57217;SDS011;43078;52.972;6.482;2022-12-08T16:09:11;4.82;;;1.35;;
57217;SDS011;43078;52.972;6.482;2022-12-08T16:11:43;5.78;;;1.55;;
57217;SDS011;43078;52.972;6.482;2022-12-08T16:14:27;6.50;;;1.85;;
57217;SDS011;43078;52.972;6.482;2022-12-08T16:16:53;6.00;;;1.70;;
57217;SDS011;43078;52.972;6.482;2022-12-08T16:19:19;4.88;;;1.80;;
57217;SDS011;43078;52.972;6.482;2022-12-08T16:21:44;6.47;;;2.10;;
57217;SDS011;43078;52.972;6.482;2022-12-08T16:24:10;7.05;;;1.90;;
57217;SDS011;43078;52.972;6.482;2022-12-08T16:26:35;4.13;;;1.77;;
57217;SDS011;43078;52.972;6.482;2022-12-08T16:29:02;4.90;;;1.80;;
57217;SDS011;43078;52.972;6.482;2022-12-08T16:31:28;6.03;;;1.92;;
57217;SDS011;43078;52.972;6.482;2022-12-08T16:33:56;7.00;;;2.13;;
57217;SDS011;43078;52.972;6.482;2022-12-08T16:36:22;6.32;;;2.15;;
57217;SDS011;43078;52.972;6.482;2022-12-08T16:38:47;6.07;;;2.50;;
57217;SDS011;43078;52.972;6.482;2022-12-08T16:41:13;8.52;;;3.13;;
57217;SDS011;43078;52.972;6.482;2022-12-08T16:44:00;7.75;;;2.67;;
57217;SDS011;43078;52.972;6.482;2022-12-08T16:46:27;5.70;;;2.60;;
57217;SDS011;43078;52.972;6.482;2022-12-08T16:48:52;10.00;;;3.22;;
57217;SDS011;43078;52.972;6.482;2022-12-08T16:51:19;8.00;;;2.88;;
57217;SDS011;43078;52.972;6.482;2022-12-08T16:53:44;7.95;;;2.80;;
57217;SDS011;43078;52.972;6.482;2022-12-08T16:56:14;6.45;;;2.70;;
57217;SDS011;43078;52.972;6.482;2022-12-08T16:58:42;6.50;;;2.75;;
57217;SDS011;43078;52.972;6.482;2022-12-08T17:01:09;8.23;;;2.65;;
57217;SDS011;43078;52.972;6.482;2022-12-08T17:03:36;7.65;;;2.70;;
57217;SDS011;43078;52.972;6.482;2022-12-08T17:06:06;8.80;;;2.90;;
57217;SDS011;43078;52.972;6.482;2022-12-08T17:08:36;10.27;;;2.85;;
57217;SDS011;43078;52.972;6.482;2022-12-08T17:11:03;11.75;;;3.03;;
57217;SDS011;43078;52.972;6.482;2022-12-08T17:13:36;10.57;;;3.40;;
57217;SDS011;43078;52.972;6.482;2022-12-08T17:16:08;9.90;;;3.08;;